Moffett Field, CA

4:51 PM PDT op 19 september 2014 (GMT -0700)
Moffett Federal Air Field | Change Station
CLOSE
Current Station
Luchthaven
Location: Moffett NAS,
Geometrische hoogte: 39 ft
Nabije weerstations

Hoogte 39 ft 37.41 °N, 122.05 °W | Updated 55 minutes ago

Helder
Helder
75 °F
Voelt als 75 °F
N
15
Wind Variabel Wind van NNW
Gusts 22 mijl/u

Vandaag
Hoog -- | Laag -- °F
--% Kans op neerslag
Gisteren
Hoog -- | Laag -- °F
Precip. -- inches
6:53 AM 7:09 PM
Afnemende halvemaan, 16% visible
Druk 29.87 inches
Zicht 10.0 mijlen
Wolken Helder
Dauwpunt 62 °F
Vochtigheid 64%
Neerslag 0.00 inches
Dikte sneeuw 0 in , 0 in , 0 in
UV 4 van de 12
Pollen 4.70 van de 12
PM2.5 Goed
Flu Activity Niet beschikbaar.
METAR KNUQ 192256Z 34013G19KT 10SM CLR 24/17 A2986 RMK AO2 SLP113 T02390167

More Conditions Fewer Conditions

Druk 29.87 inches
Zicht 10.0 mijlen
Wolken Helder
Dauwpunt 62 °F
Vochtigheid 64%
Neerslag 0.00 inches
Dikte sneeuw 0 in , 0 in , 0 in
UV 4 van de 12
Pollen 4.70 van de 12
PM2.5 Goed
Flu Activity Niet beschikbaar.
METAR KNUQ 192256Z 34013G19KT 10SM CLR 24/17 A2986 RMK AO2 SLP113 T02390167

More Conditions Fewer Conditions

10-Day Weather Forecast

Almanac

Astronomie

Sep. 19, 2014 Opkomst Ondergang
Werkelijke tijd 6:53 AM PDT 7:09 PM PDT
Burgerlijke schemering 6:27 AM PDT 7:35 PM PDT
Nautische schemering 5:56 AM PDT 8:06 PM PDT
Astronomische schemering 5:25 AM PDT 8:37 PM PDT
Maan 2:47 AM PDT 4:38 PM PDT
Golflengte van het zichtbare licht 13h 08m
Daglengte
12h 15m
Tomorrow will be 2m 22s shorter.
Afnemende halvemaan, 16% of the Moon is Illuminated
Vandaag
Afnemende halvemaan
sep 24
Nieuw
oktober 1
Eerste kwartier
oktober 8
Volle maan
oktober 15
Laatste kwartier

Extremen vandaag

State Highs State Lows

Community

WunderPhotos

Upload Photos

1,754,730 foto’s ge-upload!

Nearby

Luchtkwaliteit

  Luchtkwaliteit LK-index Verontreinigende stof
Gisteren Goed
OZONE
Gisteren Goed
PM2.5
Actueel Goed
PM2.5
vrijdag Goed
OZONE
zaterdag Matig
PM2.5
zondag Matig
PM2.5
maandag Goed
PM2.5
dinsdag Goed
PM2.5
woensdag Goed
OZONE

Dikte sneeuw

Station Depth Geometrische hoogte
Burnside Lake 0 in 8139 ft
Tahoe City Cross 0 in 6750 ft
Echo Peak 0 in 7800 ft
Spratt Creek 0 in 6200 ft
Rubicon #2 0 in 7500 ft

Aardbevingen

Stad Distance Mag. Time & Date
Livermore, California 25 mijlen 2.6 3:37 AM PDT
2014-09-19
The Geysers, California 99 mijlen 2.5 11:29 PM PDT
2014-09-17
Cobb, California 101 mijlen 2.7 1:23 PM PDT
2014-09-16
Minimum magnitude displayed is 2.5.

Watertemperatuur langs de kust

Plaats Temperatuur
Geen meldingen van stations

Nabije weerstations